Time;durP1;ratioP1;P1;durP2;ratioP2;P2;SDS_P1;SDS_P2;PMS_P1;PMS_P2;Temp;Humidity;BMP_temperature;BMP_pressure;BME280_temperature;BME280_humidity;BME280_pressure;Samples;Min_cycle;Max_cycle;Signal;HPM_P1;HPM_P2
2022/06/22 00:02:15;;;;;;;4.53;2.10;;;;;;;;;;5055666;28;20206;-67
2022/06/22 00:04:45;;;;;;;3.50;2.30;;;;;;;;;;5055594;28;20705;-66
2022/06/22 00:07:33;;;;;;;2.33;1.80;;;;;;;;;;5037324;28;20325;-67
2022/06/22 00:10:14;;;;;;;2.63;2.00;;;;;;;;;;5037528;28;20542;-67
2022/06/22 00:12:40;;;;;;;5.53;1.87;;;;;;;;;;5037238;28;20353;-65
2022/06/22 00:15:21;;;;;;;4.27;2.47;;;;;;;;;;5055050;28;20248;-65
2022/06/22 00:17:47;;;;;;;5.10;2.20;;;;;;;;;;5054930;28;20198;-65
2022/06/22 00:20:18;;;;;;;4.30;1.80;;;;;;;;;;5055106;28;20210;-65
2022/06/22 00:22:46;;;;;;;4.73;2.40;;;;;;;;;;5054951;28;20178;-65
2022/06/22 00:25:20;;;;;;;3.67;2.47;;;;;;;;;;5055270;28;20179;-65
2022/06/22 00:27:46;;;;;;;2.77;2.07;;;;;;;;;;5036884;28;20217;-65
2022/06/22 00:30:15;;;;;;;2.67;2.20;;;;;;;;;;5054824;28;20248;-65
2022/06/22 00:32:53;;;;;;;2.63;2.33;;;;;;;;;;5055348;28;20175;-65
2022/06/22 00:35:35;;;;;;;14.70;10.20;;;;;;;;;;5037115;28;20535;-65
2022/06/22 00:38:01;;;;;;;103.83;61.17;;;;;;;;;;5036705;28;20570;-65
2022/06/22 00:40:28;;;;;;;75.07;43.37;;;;;;;;;;5054617;28;20178;-65
2022/06/22 00:42:55;;;;;;;106.37;55.97;;;;;;;;;;5054857;28;20233;-65
2022/06/22 00:45:23;;;;;;;19.03;11.73;;;;;;;;;;5054606;28;20210;-66
2022/06/22 00:47:57;;;;;;;7.20;3.20;;;;;;;;;;5054162;28;20218;-65
2022/06/22 00:50:28;;;;;;;5.17;3.07;;;;;;;;;;5036318;28;20174;-65
2022/06/22 00:53:01;;;;;;;9.67;5.17;;;;;;;;;;5054332;28;20167;-64
2022/06/22 00:55:30;;;;;;;16.50;10.03;;;;;;;;;;5054343;28;20178;-65
2022/06/22 00:58:00;;;;;;;8.73;5.73;;;;;;;;;;5036311;28;20693;-67
2022/06/22 01:00:29;;;;;;;6.90;4.10;;;;;;;;;;5054801;28;20609;-65
2022/06/22 01:02:58;;;;;;;4.83;2.83;;;;;;;;;;5036315;28;20263;-65
2022/06/22 01:05:24;;;;;;;5.17;2.80;;;;;;;;;;5054153;28;20186;-65
2022/06/22 01:08:08;;;;;;;6.27;3.70;;;;;;;;;;5053831;28;20206;-65
2022/06/22 01:10:43;;;;;;;3.33;2.50;;;;;;;;;;5054004;28;20178;-65
2022/06/22 01:13:13;;;;;;;8.63;2.60;;;;;;;;;;5053914;28;20182;-68
2022/06/22 01:15:45;;;;;;;3.80;3.00;;;;;;;;;;5053915;28;20227;-65
2022/06/22 01:18:20;;;;;;;10.73;6.70;;;;;;;;;;5036352;28;20288;-65
2022/06/22 01:20:46;;;;;;;8.03;4.07;;;;;;;;;;5035855;28;20623;-65
2022/06/22 01:23:20;;;;;;;5.53;2.80;;;;;;;;;;5053711;28;20189;-67
2022/06/22 01:25:50;;;;;;;6.93;3.73;;;;;;;;;;5053811;28;20170;-67
2022/06/22 01:28:16;;;;;;;4.53;3.23;;;;;;;;;;5035733;28;20305;-67
2022/06/22 01:30:44;;;;;;;5.30;3.03;;;;;;;;;;5053636;28;20182;-65
2022/06/22 01:33:19;;;;;;;3.33;2.67;;;;;;;;;;5035735;28;20182;-66
2022/06/22 01:35:45;;;;;;;3.93;3.23;;;;;;;;;;5053582;28;20180;-66
2022/06/22 01:38:19;;;;;;;7.73;5.13;;;;;;;;;;5053754;28;20586;-65
2022/06/22 01:40:48;;;;;;;8.03;4.93;;;;;;;;;;5053604;28;20224;-65
2022/06/22 01:43:19;;;;;;;9.93;6.00;;;;;;;;;;5035589;28;20183;-65
2022/06/22 01:45:47;;;;;;;14.47;11.53;;;;;;;;;;5053728;28;20171;-65
2022/06/22 01:48:17;;;;;;;5.60;4.90;;;;;;;;;;5035280;28;20230;-65
2022/06/22 01:51:01;;;;;;;6.20;4.93;;;;;;;;;;5053404;28;20175;-65
2022/06/22 01:53:27;;;;;;;7.30;5.57;;;;;;;;;;5035394;28;20626;-65
2022/06/22 01:56:02;;;;;;;7.87;7.17;;;;;;;;;;5035431;28;20275;-66
2022/06/22 01:58:51;;;;;;;6.87;5.40;;;;;;;;;;5053202;28;20194;-65
2022/06/22 02:01:22;;;;;;;9.27;3.90;;;;;;;;;;5040243;28;20204;-65
2022/06/22 02:04:02;;;;;;;8.60;4.67;;;;;;;;;;5052732;28;20170;-65
2022/06/22 02:09:17;;;;;;;30.43;21.30;;;;;;;;;;5053803;28;20173;-65
2022/06/22 02:11:47;;;;;;;31.43;22.23;;;;;;;;;;5035261;28;20181;-65
2022/06/22 02:14:17;;;;;;;25.47;16.47;;;;;;;;;;5053081;28;20616;-65
2022/06/22 02:16:48;;;;;;;17.27;12.37;;;;;;;;;;5053624;28;20174;-65
2022/06/22 02:19:16;;;;;;;18.60;13.17;;;;;;;;;;5035186;28;20269;-67
2022/06/22 02:21:43;;;;;;;7.50;4.57;;;;;;;;;;5035160;28;20235;-65
2022/06/22 02:24:14;;;;;;;7.73;4.37;;;;;;;;;;5053004;28;20181;-65
2022/06/22 02:26:52;;;;;;;11.90;8.97;;;;;;;;;;5052872;28;20179;-65
2022/06/22 02:29:19;;;;;;;19.20;11.43;;;;;;;;;;5035034;28;20182;-65
2022/06/22 02:31:46;;;;;;;28.23;22.80;;;;;;;;;;5053457;28;20170;-66
2022/06/22 02:34:13;;;;;;;17.80;11.77;;;;;;;;;;5052906;28;20170;-65
2022/06/22 02:36:41;;;;;;;8.70;7.70;;;;;;;;;;5034899;28;20657;-67
2022/06/22 02:39:09;;;;;;;8.57;6.23;;;;;;;;;;5052882;28;20185;-66
2022/06/22 02:44:40;;;;;;;5.57;3.43;;;;;;;;;;5053118;28;20170;-65
2022/06/22 02:47:18;;;;;;;4.90;3.40;;;;;;;;;;5052519;28;20233;-67
2022/06/22 02:49:56;;;;;;;6.37;3.77;;;;;;;;;;5052943;28;20174;-67
2022/06/22 02:52:24;;;;;;;6.17;4.20;;;;;;;;;;5034895;28;20227;-67
2022/06/22 02:54:52;;;;;;;9.33;3.07;;;;;;;;;;5053278;28;20171;-67
2022/06/22 02:57:27;;;;;;;4.90;3.00;;;;;;;;;;5052583;28;20744;-67
2022/06/22 02:59:53;;;;;;;5.03;3.20;;;;;;;;;;5052789;28;20641;-65
2022/06/22 03:02:21;;;;;;;3.90;3.23;;;;;;;;;;5052892;28;20178;-65
2022/06/22 03:04:47;;;;;;;7.70;3.07;;;;;;;;;;5052733;28;20553;-66
2022/06/22 03:07:14;;;;;;;3.43;2.77;;;;;;;;;;5034513;28;20683;-65
2022/06/22 03:09:40;;;;;;;2.90;2.57;;;;;;;;;;5052842;28;20580;-65
2022/06/22 03:12:07;;;;;;;5.53;3.10;;;;;;;;;;5052891;28;20174;-66
2022/06/22 03:14:36;;;;;;;3.50;2.70;;;;;;;;;;5055081;28;20174;-66
2022/06/22 03:17:04;;;;;;;2.40;2.23;;;;;;;;;;5056336;28;20195;-65
2022/06/22 03:19:53;;;;;;;4.47;2.90;;;;;;;;;;5056520;28;20183;-65
2022/06/22 03:22:20;;;;;;;3.40;3.10;;;;;;;;;;5025769;28;20198;-65
2022/06/22 03:24:52;;;;;;;3.40;2.70;;;;;;;;;;5056165;28;20232;-65
2022/06/22 03:27:20;;;;;;;2.90;2.60;;;;;;;;;;5038070;28;20214;-65
2022/06/22 03:29:50;;;;;;;3.60;2.60;;;;;;;;;;5038321;28;20274;-65
2022/06/22 03:32:25;;;;;;;4.87;2.87;;;;;;;;;;5038761;28;20268;-65
2022/06/22 03:34:54;;;;;;;4.17;2.70;;;;;;;;;;5056293;28;20646;-65
2022/06/22 03:37:23;;;;;;;5.07;3.17;;;;;;;;;;5055925;28;20205;-65
2022/06/22 03:39:51;;;;;;;3.40;2.97;;;;;;;;;;5037978;28;20255;-66
2022/06/22 03:42:20;;;;;;;4.37;2.80;;;;;;;;;;5056459;28;20555;-65
2022/06/22 03:44:55;;;;;;;6.77;3.27;;;;;;;;;;5055854;28;20189;-65
2022/06/22 03:47:23;;;;;;;2.97;2.77;;;;;;;;;;5055559;28;20229;-65
2022/06/22 03:49:58;;;;;;;4.17;2.67;;;;;;;;;;5037852;28;20178;-67
2022/06/22 03:52:39;;;;;;;3.43;2.83;;;;;;;;;;5055674;28;20200;-66
2022/06/22 03:55:04;;;;;;;3.67;3.33;;;;;;;;;;5055635;28;20171;-66
2022/06/22 03:57:33;;;;;;;5.80;3.17;;;;;;;;;;5037642;28;20552;-66
2022/06/22 03:59:59;;;;;;;3.90;3.03;;;;;;;;;;5037856;28;20262;-66
2022/06/22 04:02:26;;;;;;;5.83;3.80;;;;;;;;;;5055455;28;20605;-66
2022/06/22 04:04:53;;;;;;;5.13;3.10;;;;;;;;;;5055413;28;20183;-65
2022/06/22 04:07:19;;;;;;;4.93;3.17;;;;;;;;;;5037661;28;20643;-65
2022/06/22 04:09:49;;;;;;;6.63;3.33;;;;;;;;;;5037452;28;20187;-66
2022/06/22 04:12:35;;;;;;;4.23;3.00;;;;;;;;;;5037447;28;20184;-65
2022/06/22 04:15:19;;;;;;;4.77;3.30;;;;;;;;;;5055544;28;20189;-65
2022/06/22 04:17:54;;;;;;;4.83;3.53;;;;;;;;;;5037320;28;20202;-65
2022/06/22 04:20:20;;;;;;;7.20;3.73;;;;;;;;;;5055097;28;20634;-65
2022/06/22 04:22:57;;;;;;;5.20;3.43;;;;;;;;;;5055512;28;20258;-65
2022/06/22 04:25:35;;;;;;;5.73;3.37;;;;;;;;;;5054384;28;20166;-65
2022/06/22 04:28:03;;;;;;;6.43;3.57;;;;;;;;;;5037053;28;20206;-66
2022/06/22 04:30:30;;;;;;;4.87;3.50;;;;;;;;;;5054944;28;20300;-66
2022/06/22 04:33:15;;;;;;;4.07;2.97;;;;;;;;;;5036876;28;20178;-66
2022/06/22 04:35:47;;;;;;;6.43;3.23;;;;;;;;;;5036913;28;20281;-65
2022/06/22 04:38:21;;;;;;;5.37;3.30;;;;;;;;;;5054743;28;20691;-65
2022/06/22 04:40:53;;;;;;;6.60;3.70;;;;;;;;;;5055305;28;20322;-65
2022/06/22 04:43:19;;;;;;;6.77;4.00;;;;;;;;;;5054660;28;20213;-66
2022/06/22 04:45:46;;;;;;;6.53;3.67;;;;;;;;;;5036808;28;20635;-66
2022/06/22 04:48:12;;;;;;;5.03;3.60;;;;;;;;;;5036443;28;20613;-66
2022/06/22 04:50:39;;;;;;;7.97;3.80;;;;;;;;;;5054568;28;20261;-66
2022/06/22 04:53:05;;;;;;;4.10;3.70;;;;;;;;;;5054390;28;20209;-66
2022/06/22 04:55:41;;;;;;;5.23;3.13;;;;;;;;;;5054340;28;20611;-66
2022/06/22 04:58:14;;;;;;;6.07;3.30;;;;;;;;;;5036485;28;20213;-66
2022/06/22 05:00:41;;;;;;;6.67;3.03;;;;;;;;;;5054514;28;20254;-66
2022/06/22 05:03:13;;;;;;;9.00;3.73;;;;;;;;;;5036289;28;20189;-66
2022/06/22 05:05:39;;;;;;;5.00;3.70;;;;;;;;;;5054261;28;20611;-66
2022/06/22 05:08:23;;;;;;;4.60;3.17;;;;;;;;;;5036096;28;20670;-66
2022/06/22 05:10:52;;;;;;;7.80;3.40;;;;;;;;;;5036173;28;20179;-65
2022/06/22 05:13:23;;;;;;;5.07;3.00;;;;;;;;;;5054160;28;20638;-65
2022/06/22 05:15:52;;;;;;;5.53;3.10;;;;;;;;;;5036199;28;20174;-65
2022/06/22 05:18:20;;;;;;;5.50;3.43;;;;;;;;;;5054107;28;20194;-65
2022/06/22 05:20:49;;;;;;;6.53;3.93;;;;;;;;;;5053924;28;20186;-67
2022/06/22 05:23:17;;;;;;;6.20;3.60;;;;;;;;;;5035948;28;20183;-66
2022/06/22 05:25:44;;;;;;;7.73;3.80;;;;;;;;;;5053833;28;20189;-65
2022/06/22 05:28:15;;;;;;;5.87;3.73;;;;;;;;;;5053612;28;20234;-66
2022/06/22 05:30:54;;;;;;;7.97;3.97;;;;;;;;;;5054010;28;20161;-66
2022/06/22 05:33:22;;;;;;;5.50;4.03;;;;;;;;;;5053686;28;20171;-65
2022/06/22 05:35:49;;;;;;;6.87;3.80;;;;;;;;;;5035750;28;20214;-66
2022/06/22 05:38:17;;;;;;;5.97;3.83;;;;;;;;;;5052611;28;20674;-66
2022/06/22 05:40:43;;;;;;;5.57;3.60;;;;;;;;;;5035713;28;20208;-66
2022/06/22 05:43:09;;;;;;;4.83;3.30;;;;;;;;;;5053524;28;20716;-65
2022/06/22 05:45:46;;;;;;;3.93;3.33;;;;;;;;;;5035704;28;20189;-66
2022/06/22 05:48:15;;;;;;;5.90;3.80;;;;;;;;;;5053361;28;20224;-66
2022/06/22 05:50:44;;;;;;;6.03;3.63;;;;;;;;;;5054698;28;20194;-66
2022/06/22 05:53:16;;;;;;;6.47;4.07;;;;;;;;;;5035470;28;20183;-66
2022/06/22 05:56:01;;;;;;;4.87;3.60;;;;;;;;;;5053441;28;20220;-66
2022/06/22 05:58:47;;;;;;;4.57;3.70;;;;;;;;;;5035410;28;20246;-66
2022/06/22 06:01:36;;;;;;;6.50;3.07;;;;;;;;;;5053476;28;20257;-66
2022/06/22 06:04:05;;;;;;;4.90;3.40;;;;;;;;;;5007627;28;20198;-66
2022/06/22 06:06:37;;;;;;;4.43;3.83;;;;;;;;;;5053914;28;20228;-65
2022/06/22 06:09:05;;;;;;;5.73;3.87;;;;;;;;;;5035480;28;20193;-66
2022/06/22 06:11:38;;;;;;;7.97;4.33;;;;;;;;;;5035271;28;20206;-65
2022/06/22 06:14:06;;;;;;;4.50;3.60;;;;;;;;;;5035473;28;20201;-66
2022/06/22 06:16:52;;;;;;;6.13;3.40;;;;;;;;;;5035337;28;20236;-65
2022/06/22 06:19:20;;;;;;;5.67;3.50;;;;;;;;;;5053383;28;20265;-66
2022/06/22 06:21:46;;;;;;;7.27;3.93;;;;;;;;;;5053308;28;20175;-65
2022/06/22 06:24:12;;;;;;;3.97;3.53;;;;;;;;;;5053474;28;20175;-65
2022/06/22 06:29:39;;;;;;;6.23;3.60;;;;;;;;;;5053220;28;20684;-65
2022/06/22 06:32:24;;;;;;;5.43;3.50;;;;;;;;;;5035278;28;20273;-65
2022/06/22 06:34:54;;;;;;;4.30;3.17;;;;;;;;;;5035192;28;20181;-65
2022/06/22 06:37:20;;;;;;;5.13;3.80;;;;;;;;;;5053454;28;20194;-66
2022/06/22 06:39:47;;;;;;;5.73;3.73;;;;;;;;;;5053049;28;20267;-66
2022/06/22 06:42:36;;;;;;;6.40;3.20;;;;;;;;;;5053255;28;20183;-66
2022/06/22 06:45:03;;;;;;;4.20;3.40;;;;;;;;;;5053063;28;20236;-65
2022/06/22 06:47:36;;;;;;;4.57;2.93;;;;;;;;;;5034960;28;20217;-66
2022/06/22 06:50:06;;;;;;;5.37;3.23;;;;;;;;;;5056830;28;20605;-66
2022/06/22 06:52:38;;;;;;;5.77;3.53;;;;;;;;;;5039115;28;20175;-66
2022/06/22 06:55:10;;;;;;;5.33;3.20;;;;;;;;;;5056890;28;20174;-66
2022/06/22 06:57:38;;;;;;;4.67;3.07;;;;;;;;;;5056765;28;20240;-66
2022/06/22 07:00:06;;;;;;;6.23;3.17;;;;;;;;;;5056559;28;20178;-65
2022/06/22 07:02:36;;;;;;;6.33;3.30;;;;;;;;;;5056587;28;20705;-66
2022/06/22 07:05:04;;;;;;;4.17;3.20;;;;;;;;;;5038833;28;20227;-65
2022/06/22 07:07:40;;;;;;;4.33;3.10;;;;;;;;;;5056304;28;20210;-65
2022/06/22 07:10:10;;;;;;;4.00;3.20;;;;;;;;;;5056619;28;20174;-65
2022/06/22 07:12:40;;;;;;;7.73;3.87;;;;;;;;;;5056663;28;20162;-65
2022/06/22 07:15:10;;;;;;;7.83;3.33;;;;;;;;;;5056915;28;20175;-65
2022/06/22 07:17:36;;;;;;;3.40;3.10;;;;;;;;;;5056300;28;20194;-65
2022/06/22 07:20:23;;;;;;;4.17;3.20;;;;;;;;;;5038445;28;20193;-65
2022/06/22 07:22:59;;;;;;;3.80;3.20;;;;;;;;;;5038270;28;20183;-65
2022/06/22 07:25:47;;;;;;;3.17;2.87;;;;;;;;;;5038481;28;20277;-65
2022/06/22 07:28:22;;;;;;;5.13;3.00;;;;;;;;;;5056000;28;20214;-65
2022/06/22 07:30:50;;;;;;;4.77;3.40;;;;;;;;;;5056397;28;20641;-65
2022/06/22 07:33:30;;;;;;;3.87;2.93;;;;;;;;;;5055827;28;20178;-65
2022/06/22 07:36:05;;;;;;;4.43;2.87;;;;;;;;;;5038026;28;20602;-65
2022/06/22 07:38:31;;;;;;;6.17;3.30;;;;;;;;;;5056149;28;20723;-65
2022/06/22 07:43:43;;;;;;;3.60;2.80;;;;;;;;;;5056246;28;20171;-66
2022/06/22 07:46:10;;;;;;;4.27;2.87;;;;;;;;;;5037904;28;20187;-65
2022/06/22 07:48:42;;;;;;;4.90;2.67;;;;;;;;;;5055504;28;20225;-65
2022/06/22 07:51:09;;;;;;;4.67;3.10;;;;;;;;;;5037835;28;20217;-65
2022/06/22 07:54:08;;;;;;;7.67;3.20;;;;;;;;;;5037720;28;20206;-65
2022/06/22 07:56:47;;;;;;;8.97;3.37;;;;;;;;;;5001514;28;20190;-65
2022/06/22 07:59:16;;;;;;;5.33;3.63;;;;;;;;;;5055829;28;20170;-66
2022/06/22 08:01:43;;;;;;;5.93;3.50;;;;;;;;;;5054706;28;20266;-66
2022/06/22 08:04:24;;;;;;;4.97;3.73;;;;;;;;;;5055473;28;20262;-65
2022/06/22 08:06:55;;;;;;;4.77;4.00;;;;;;;;;;5055085;28;20213;-65
2022/06/22 08:09:30;;;;;;;4.57;3.80;;;;;;;;;;5055322;28;20170;-65
2022/06/22 08:12:06;;;;;;;8.47;4.03;;;;;;;;;;5055792;28;20519;-65
2022/06/22 08:14:39;;;;;;;5.30;3.90;;;;;;;;;;5055386;28;20245;-65
2022/06/22 08:17:07;;;;;;;6.43;3.83;;;;;;;;;;5055057;28;20202;-65
2022/06/22 08:19:33;;;;;;;5.30;3.17;;;;;;;;;;5055204;28;20183;-65
2022/06/22 08:22:04;;;;;;;3.73;3.37;;;;;;;;;;5055072;28;20186;-66
2022/06/22 08:24:32;;;;;;;5.63;3.17;;;;;;;;;;5055528;28;20518;-65
2022/06/22 08:26:58;;;;;;;5.63;3.53;;;;;;;;;;5054932;28;20210;-65
2022/06/22 08:29:24;;;;;;;5.80;2.77;;;;;;;;;;5054983;28;20232;-65
2022/06/22 08:32:13;;;;;;;5.20;3.23;;;;;;;;;;5054996;28;20178;-65
2022/06/22 08:34:42;;;;;;;6.23;2.70;;;;;;;;;;5055154;28;20159;-65
2022/06/22 08:37:13;;;;;;;3.57;2.43;;;;;;;;;;5036895;28;20205;-65
2022/06/22 08:39:42;;;;;;;3.63;2.50;;;;;;;;;;5055016;28;20224;-65
2022/06/22 08:42:27;;;;;;;2.87;2.20;;;;;;;;;;5036868;28;20669;-65
2022/06/22 08:45:05;;;;;;;4.57;2.37;;;;;;;;;;5054776;28;20175;-66
2022/06/22 08:47:37;;;;;;;3.60;2.23;;;;;;;;;;5036859;28;20221;-69
2022/06/22 08:50:15;;;;;;;4.40;2.60;;;;;;;;;;5054951;28;20253;-65
2022/06/22 08:52:58;;;;;;;5.30;2.47;;;;;;;;;;5037024;28;20214;-66
2022/06/22 08:55:23;;;;;;;2.77;1.87;;;;;;;;;;5036891;28;20556;-66
2022/06/22 08:58:15;;;;;;;2.97;2.20;;;;;;;;;;5036730;28;20202;-66
2022/06/22 09:00:41;;;;;;;5.23;2.30;;;;;;;;;;5054625;28;20166;-66
2022/06/22 09:03:22;;;;;;;3.83;2.50;;;;;;;;;;5036506;28;20198;-66
2022/06/22 09:06:07;;;;;;;5.90;2.30;;;;;;;;;;5054367;28;20170;-66
2022/06/22 09:08:42;;;;;;;4.10;2.20;;;;;;;;;;5054142;28;20674;-66
2022/06/22 09:11:14;;;;;;;3.53;2.20;;;;;;;;;;5054094;28;20183;-66
2022/06/22 09:13:40;;;;;;;4.90;2.40;;;;;;;;;;5054149;28;20182;-66
2022/06/22 09:16:06;;;;;;;2.50;2.30;;;;;;;;;;5054177;28;20239;-66
2022/06/22 09:18:35;;;;;;;4.03;2.30;;;;;;;;;;5034960;28;20389;-66
2022/06/22 09:21:08;;;;;;;2.73;1.90;;;;;;;;;;5036090;28;20187;-67
2022/06/22 09:23:50;;;;;;;4.47;2.40;;;;;;;;;;5054409;28;20171;-66
2022/06/22 09:26:34;;;;;;;3.50;2.47;;;;;;;;;;5054118;28;20556;-66
2022/06/22 09:29:04;;;;;;;4.40;2.60;;;;;;;;;;5054051;28;20213;-67
2022/06/22 09:31:42;;;;;;;3.07;2.13;;;;;;;;;;5036027;28;20175;-66
2022/06/22 09:34:26;;;;;;;4.23;2.23;;;;;;;;;;5053929;28;20252;-63
2022/06/22 09:37:07;;;;;;;4.70;2.27;;;;;;;;;;5053785;28;20273;-63
2022/06/22 09:39:39;;;;;;;3.00;2.20;;;;;;;;;;5035935;28;20221;-64
2022/06/22 09:42:17;;;;;;;2.87;2.20;;;;;;;;;;5035959;28;20190;-64
2022/06/22 09:44:47;;;;;;;2.47;1.90;;;;;;;;;;5053748;28;20246;-64
2022/06/22 09:47:31;;;;;;;2.40;2.20;;;;;;;;;;5053315;28;20214;-64
2022/06/22 09:50:12;;;;;;;4.33;2.00;;;;;;;;;;5053454;28;20189;-64
2022/06/22 09:52:47;;;;;;;3.33;2.13;;;;;;;;;;5054080;28;20179;-65
2022/06/22 09:58:19;;;;;;;2.93;2.00;;;;;;;;;;5053440;28;20200;-64
2022/06/22 10:00:51;;;;;;;4.27;2.20;;;;;;;;;;5052533;28;20860;-65
2022/06/22 10:03:17;;;;;;;4.50;2.10;;;;;;;;;;5053902;28;20182;-65
2022/06/22 10:05:53;;;;;;;3.30;2.13;;;;;;;;;;5053543;28;20224;-65
2022/06/22 10:08:38;;;;;;;4.27;2.10;;;;;;;;;;5053744;28;20259;-65
2022/06/22 10:11:04;;;;;;;2.47;2.07;;;;;;;;;;5035545;28;20186;-65
2022/06/22 10:13:48;;;;;;;2.87;1.93;;;;;;;;;;5053319;28;20638;-65
2022/06/22 10:16:33;;;;;;;3.13;1.90;;;;;;;;;;5053255;28;20224;-65
2022/06/22 10:19:22;;;;;;;3.73;2.03;;;;;;;;;;5053227;28;20611;-65
2022/06/22 10:21:57;;;;;;;3.07;2.20;;;;;;;;;;5053459;28;20167;-65
2022/06/22 10:24:42;;;;;;;2.00;1.90;;;;;;;;;;5052762;28;20201;-65
2022/06/22 10:27:26;;;;;;;3.13;1.97;;;;;;;;;;5053112;28;20210;-65
2022/06/22 10:29:52;;;;;;;4.23;2.10;;;;;;;;;;5053066;28;20171;-65
2022/06/22 10:32:27;;;;;;;2.23;1.97;;;;;;;;;;5053257;28;20547;-65
2022/06/22 10:35:01;;;;;;;3.30;2.17;;;;;;;;;;5053075;28;20180;-65
2022/06/22 10:37:35;;;;;;;3.10;2.20;;;;;;;;;;5053252;28;20235;-64
2022/06/22 10:40:04;;;;;;;3.77;2.20;;;;;;;;;;5053540;28;20161;-65
2022/06/22 10:45:40;;;;;;;2.30;1.90;;;;;;;;;;5053323;28;20572;-64
2022/06/22 10:48:12;;;;;;;3.87;2.50;;;;;;;;;;5052790;28;20214;-65
2022/06/22 10:50:57;;;;;;;2.50;1.93;;;;;;;;;;5052937;28;20549;-65
2022/06/22 10:53:26;;;;;;;3.20;1.90;;;;;;;;;;5053025;28;20174;-65
2022/06/22 10:55:57;;;;;;;2.80;1.77;;;;;;;;;;5053187;28;20622;-65
2022/06/22 10:58:29;;;;;;;2.40;1.97;;;;;;;;;;5053070;28;20287;-64
2022/06/22 11:01:14;;;;;;;2.77;2.13;;;;;;;;;;5052896;28;20566;-64
2022/06/22 11:04:08;;;;;;;4.50;2.10;;;;;;;;;;5052730;28;20186;-64
2022/06/22 11:06:54;;;;;;;3.80;2.20;;;;;;;;;;5034922;28;20178;-64
2022/06/22 11:09:39;;;;;;;3.10;2.07;;;;;;;;;;5035986;28;20269;-64
2022/06/22 11:12:25;;;;;;;2.03;1.93;;;;;;;;;;5052809;28;20598;-64
2022/06/22 11:15:10;;;;;;;2.63;1.90;;;;;;;;;;5051819;28;20366;-64
2022/06/22 11:17:46;;;;;;;3.10;2.00;;;;;;;;;;5052581;28;20205;-64
2022/06/22 11:20:14;;;;;;;2.13;1.93;;;;;;;;;;5052723;28;20627;-64
2022/06/22 11:22:42;;;;;;;2.77;2.00;;;;;;;;;;5034781;28;20668;-64
2022/06/22 11:31:39;;;;;;;2.50;2.03;;;;;;;;;;5052986;28;20305;-64
2022/06/22 11:34:08;;;;;;;2.70;1.90;;;;;;;;;;5034912;28;20213;-64
2022/06/22 11:36:53;;;;;;;2.10;1.90;;;;;;;;;;5055067;28;20178;-64
2022/06/22 11:39:25;;;;;;;2.43;2.23;;;;;;;;;;5056759;28;20546;-64
2022/06/22 11:42:03;;;;;;;3.27;2.17;;;;;;;;;;5057299;28;20545;-66
2022/06/22 11:44:41;;;;;;;3.33;1.87;;;;;;;;;;5056230;28;20182;-65
2022/06/22 11:47:12;;;;;;;2.60;2.20;;;;;;;;;;5056244;28;20222;-64
2022/06/22 11:49:56;;;;;;;3.13;2.10;;;;;;;;;;5038036;28;20174;-65
2022/06/22 11:52:26;;;;;;;3.40;2.23;;;;;;;;;;5055786;28;20643;-64
2022/06/22 11:54:52;;;;;;;3.13;2.00;;;;;;;;;;5055823;28;20175;-65
2022/06/22 11:57:47;;;;;;;4.60;2.40;;;;;;;;;;5055671;28;20259;-67
2022/06/22 12:00:12;;;;;;;2.03;1.93;;;;;;;;;;5056070;28;20159;-65
2022/06/22 12:02:38;;;;;;;4.23;2.40;;;;;;;;;;5037913;28;20706;-65
2022/06/22 12:05:10;;;;;;;4.90;2.37;;;;;;;;;;5037746;28;20533;-65
2022/06/22 12:07:45;;;;;;;3.97;2.30;;;;;;;;;;5055636;28;20217;-65
2022/06/22 12:10:23;;;;;;;4.00;2.13;;;;;;;;;;5055513;28;20197;-65
2022/06/22 12:13:08;;;;;;;4.15;2.40;;;;;;;;;;5054484;28;20473;-65
2022/06/22 12:15:39;;;;;;;4.87;2.60;;;;;;;;;;5036318;28;20880;-64
2022/06/22 12:18:15;;;;;;;3.20;2.00;;;;;;;;;;5037378;28;20202;-65
2022/06/22 12:20:44;;;;;;;3.37;2.37;;;;;;;;;;5055208;28;20170;-65
2022/06/22 12:23:13;;;;;;;6.70;2.17;;;;;;;;;;5055257;28;20583;-64
2022/06/22 12:25:53;;;;;;;7.97;2.30;;;;;;;;;;5055149;28;20208;-64
2022/06/22 12:28:37;;;;;;;3.27;2.53;;;;;;;;;;5037115;28;20216;-65
2022/06/22 12:31:12;;;;;;;3.57;2.37;;;;;;;;;;5061788;23;20222;-65
2022/06/22 12:33:41;;;;;;;3.03;2.63;;;;;;;;;;5055133;28;20170;-65
2022/06/22 12:36:11;;;;;;;6.97;2.73;;;;;;;;;;5053904;28;20639;-66
2022/06/22 12:38:41;;;;;;;4.47;3.07;;;;;;;;;;5053975;28;20178;-65
2022/06/22 12:41:10;;;;;;;4.00;2.77;;;;;;;;;;5053839;28;20211;-65
2022/06/22 12:43:51;;;;;;;4.07;2.50;;;;;;;;;;5053751;28;20186;-66
2022/06/22 12:46:31;;;;;;;2.83;2.40;;;;;;;;;;5055456;28;20512;-67
2022/06/22 12:49:03;;;;;;;3.43;1.97;;;;;;;;;;5055040;28;20198;-66
2022/06/22 12:51:50;;;;;;;2.47;2.07;;;;;;;;;;5055070;28;20197;-68
2022/06/22 12:54:20;;;;;;;3.03;2.23;;;;;;;;;;5054977;28;20155;-66
2022/06/22 12:56:49;;;;;;;2.30;2.10;;;;;;;;;;5054726;28;20685;-66
2022/06/22 12:59:27;;;;;;;6.47;2.17;;;;;;;;;;5053524;28;20183;-67
2022/06/22 13:01:53;;;;;;;2.00;1.73;;;;;;;;;;5054516;28;20194;-66
2022/06/22 13:04:21;;;;;;;3.30;1.97;;;;;;;;;;5053425;28;20658;-66
2022/06/22 13:06:52;;;;;;;2.70;2.10;;;;;;;;;;5054643;28;20186;-67
2022/06/22 13:09:20;;;;;;;2.10;1.90;;;;;;;;;;5055141;28;20166;-67
2022/06/22 13:11:48;;;;;;;2.53;2.00;;;;;;;;;;5054385;28;20206;-67
2022/06/22 13:14:33;;;;;;;4.27;2.70;;;;;;;;;;5053252;28;20175;-67
2022/06/22 13:17:19;;;;;;;7.30;2.50;;;;;;;;;;5054429;28;20261;-67
2022/06/22 13:20:03;;;;;;;4.37;1.80;;;;;;;;;;5054383;28;20232;-67
2022/06/22 13:22:39;;;;;;;4.30;2.10;;;;;;;;;;5052947;28;20298;-67
2022/06/22 13:25:08;;;;;;;3.13;2.10;;;;;;;;;;5054132;28;20173;-67
2022/06/22 13:27:52;;;;;;;6.00;2.10;;;;;;;;;;5054230;28;20198;-68
2022/06/22 13:30:35;;;;;;;1.80;1.70;;;;;;;;;;5054678;28;20246;-68
2022/06/22 13:33:04;;;;;;;3.90;2.33;;;;;;;;;;5074255;28;20173;-67
2022/06/22 13:35:38;;;;;;;2.80;2.30;;;;;;;;;;5073943;28;20184;-68
2022/06/22 13:38:11;;;;;;;2.37;2.13;;;;;;;;;;5073895;28;20610;-67
2022/06/22 13:40:55;;;;;;;2.57;1.90;;;;;;;;;;5056006;28;20178;-67
2022/06/22 13:43:40;;;;;;;2.30;2.10;;;;;;;;;;5074209;28;20219;-69
2022/06/22 13:46:15;;;;;;;2.38;1.80;;;;;;;;;;5055884;28;20213;-68
2022/06/22 13:48:44;;;;;;;3.38;2.42;;;;;;;;;;5074171;28;20280;-67
2022/06/22 13:51:29;;;;;;;3.15;2.60;;;;;;;;;;5054574;28;20399;-67
2022/06/22 13:54:06;;;;;;;2.90;2.40;;;;;;;;;;5072765;28;20433;-67
2022/06/22 13:56:50;;;;;;;3.20;2.00;;;;;;;;;;5072593;28;20384;-67
2022/06/22 13:59:22;;;;;;;4.07;2.25;;;;;;;;;;5071860;28;20391;-67
2022/06/22 14:01:52;;;;;;;2.20;1.98;;;;;;;;;;5072672;28;20375;-68
2022/06/22 14:04:18;;;;;;;;;;;;;;;;;;5056106;28;20037;-67
2022/06/22 14:06:50;;;;;;;3.55;2.17;;;;;;;;;;5072250;28;20797;-67
2022/06/22 14:09:34;;;;;;;2.78;1.85;;;;;;;;;;5055595;28;20178;-67
2022/06/22 14:12:03;;;;;;;2.42;1.90;;;;;;;;;;5073449;28;20207;-67
2022/06/22 14:14:31;;;;;;;2.17;1.83;;;;;;;;;;5073514;28;20237;-67
2022/06/22 14:17:03;;;;;;;3.80;2.25;;;;;;;;;;5073404;28;20278;-68
2022/06/22 14:19:32;;;;;;;4.43;2.38;;;;;;;;;;5073513;28;20197;-67
2022/06/22 14:22:00;;;;;;;3.28;1.92;;;;;;;;;;5055398;28;20193;-67
2022/06/22 14:24:28;;;;;;;3.80;2.28;;;;;;;;;;5073584;28;20177;-67
2022/06/22 14:27:13;;;;;;;3.95;2.30;;;;;;;;;;5073408;28;20170;-68
2022/06/22 14:29:57;;;;;;;4.43;2.08;;;;;;;;;;5073581;28;20231;-67
2022/06/22 14:32:26;;;;;;;5.25;2.30;;;;;;;;;;5073111;28;20262;-69
2022/06/22 14:35:01;;;;;;;2.38;2.00;;;;;;;;;;5073356;28;20205;-67
2022/06/22 14:37:30;;;;;;;2.13;2.03;;;;;;;;;;5055323;28;20667;-68
2022/06/22 14:40:02;;;;;;;1.95;1.73;;;;;;;;;;5073984;28;20178;-67
2022/06/22 14:42:31;;;;;;;2.40;2.20;;;;;;;;;;5055423;28;20704;-67
2022/06/22 14:45:06;;;;;;;1.90;1.60;;;;;;;;;;5073524;28;20232;-68
2022/06/22 14:47:36;;;;;;;5.32;2.10;;;;;;;;;;5054979;28;20197;-68
2022/06/22 14:50:11;;;;;;;2.00;1.80;;;;;;;;;;5055665;28;20185;-68
2022/06/22 14:52:38;;;;;;;;;;;;;;;;;;5055645;28;20024;-68
2022/06/22 14:55:03;;;;;;;;;;;;;;;;;;5055635;28;19911;-68
2022/06/22 14:57:44;;;;;;;5.25;2.30;;;;;;;;;;5073120;28;20266;-68
2022/06/22 15:00:42;;;;;;;4.00;2.80;;;;;;;;;;5073175;28;20528;-68
2022/06/22 15:03:20;;;;;;;2.55;2.30;;;;;;;;;;5028859;28;20198;-67
2022/06/22 15:05:52;;;;;;;2.92;1.92;;;;;;;;;;5055202;28;20181;-67
2022/06/22 15:08:22;;;;;;;4.25;2.30;;;;;;;;;;5073032;28;20281;-67
2022/06/22 15:10:52;;;;;;;3.03;2.13;;;;;;;;;;5058084;28;20178;-67
2022/06/22 15:13:20;;;;;;;3.42;1.92;;;;;;;;;;5076777;28;20170;-67
2022/06/22 15:15:49;;;;;;;2.20;2.00;;;;;;;;;;5077166;28;20543;-69
2022/06/22 15:18:16;;;;;;;2.33;2.13;;;;;;;;;;5078024;28;20177;-68
2022/06/22 15:20:42;;;;;;;3.20;2.08;;;;;;;;;;5058936;28;20285;-68
2022/06/22 15:23:14;;;;;;;3.33;1.90;;;;;;;;;;5076904;28;20192;-69
2022/06/22 15:25:46;;;;;;;2.60;2.10;;;;;;;;;;5059076;28;20626;-67
2022/06/22 15:28:22;;;;;;;2.65;2.00;;;;;;;;;;5058551;28;20193;-67
2022/06/22 15:30:53;;;;;;;3.25;2.10;;;;;;;;;;5058189;28;20185;-67
2022/06/22 15:33:22;;;;;;;2.55;2.22;;;;;;;;;;5058259;28;20165;-64
2022/06/22 15:35:48;;;;;;;3.05;2.15;;;;;;;;;;5058367;28;20202;-64
2022/06/22 15:38:17;;;;;;;3.50;2.00;;;;;;;;;;5058289;28;20688;-69
2022/06/22 15:41:03;;;;;;;2.22;1.90;;;;;;;;;;5058055;28;20703;-65
2022/06/22 15:43:48;;;;;;;2.30;1.90;;;;;;;;;;5058095;28;20554;-66